sensor_id;sensor_type;location;lat;lon;timestamp;P1;durP1;ratioP1;P2;durP2;ratioP2
19521;SDS011;9905;52.126;5.596;2023-12-28T00:01:46;8.13;;;7.55;;
19521;SDS011;9905;52.126;5.596;2023-12-28T00:04:14;8.18;;;7.88;;
19521;SDS011;9905;52.126;5.596;2023-12-28T00:06:40;8.30;;;8.00;;
19521;SDS011;9905;52.126;5.596;2023-12-28T00:09:07;8.02;;;7.63;;
19521;SDS011;9905;52.126;5.596;2023-12-28T00:11:34;7.60;;;7.15;;
19521;SDS011;9905;52.126;5.596;2023-12-28T00:14:01;7.53;;;7.13;;
19521;SDS011;9905;52.126;5.596;2023-12-28T00:16:28;8.68;;;8.35;;
19521;SDS011;9905;52.126;5.596;2023-12-28T00:18:57;8.27;;;7.97;;
19521;SDS011;9905;52.126;5.596;2023-12-28T00:21:26;8.10;;;7.80;;
19521;SDS011;9905;52.126;5.596;2023-12-28T00:23:53;8.35;;;7.95;;
19521;SDS011;9905;52.126;5.596;2023-12-28T00:26:19;8.63;;;8.15;;
19521;SDS011;9905;52.126;5.596;2023-12-28T00:28:46;8.95;;;8.45;;
19521;SDS011;9905;52.126;5.596;2023-12-28T00:31:13;8.32;;;8.02;;
19521;SDS011;9905;52.126;5.596;2023-12-28T00:33:40;8.73;;;8.23;;
19521;SDS011;9905;52.126;5.596;2023-12-28T00:36:07;9.43;;;8.57;;
19521;SDS011;9905;52.126;5.596;2023-12-28T00:38:35;9.45;;;9.05;;
19521;SDS011;9905;52.126;5.596;2023-12-28T00:41:02;9.07;;;8.45;;
19521;SDS011;9905;52.126;5.596;2023-12-28T00:43:29;9.93;;;9.38;;
19521;SDS011;9905;52.126;5.596;2023-12-28T00:45:55;9.18;;;8.65;;
19521;SDS011;9905;52.126;5.596;2023-12-28T00:48:22;9.13;;;8.40;;
19521;SDS011;9905;52.126;5.596;2023-12-28T00:50:49;9.27;;;8.77;;
19521;SDS011;9905;52.126;5.596;2023-12-28T00:53:16;9.02;;;8.65;;
19521;SDS011;9905;52.126;5.596;2023-12-28T00:55:44;8.07;;;7.68;;
19521;SDS011;9905;52.126;5.596;2023-12-28T00:58:11;9.25;;;8.70;;
19521;SDS011;9905;52.126;5.596;2023-12-28T01:00:37;8.82;;;8.50;;
19521;SDS011;9905;52.126;5.596;2023-12-28T01:03:04;8.65;;;8.23;;
19521;SDS011;9905;52.126;5.596;2023-12-28T01:05:31;8.45;;;8.05;;
19521;SDS011;9905;52.126;5.596;2023-12-28T01:07:57;9.75;;;9.25;;
19521;SDS011;9905;52.126;5.596;2023-12-28T01:10:24;9.95;;;9.60;;
19521;SDS011;9905;52.126;5.596;2023-12-28T01:12:52;9.15;;;8.65;;
19521;SDS011;9905;52.126;5.596;2023-12-28T01:15:19;9.10;;;8.52;;
19521;SDS011;9905;52.126;5.596;2023-12-28T01:17:46;9.55;;;9.07;;
19521;SDS011;9905;52.126;5.596;2023-12-28T01:20:13;9.07;;;8.45;;
19521;SDS011;9905;52.126;5.596;2023-12-28T01:22:40;9.30;;;8.57;;
19521;SDS011;9905;52.126;5.596;2023-12-28T01:25:06;9.88;;;9.15;;
19521;SDS011;9905;52.126;5.596;2023-12-28T01:27:33;9.57;;;8.98;;
19521;SDS011;9905;52.126;5.596;2023-12-28T01:30:01;8.40;;;8.00;;
19521;SDS011;9905;52.126;5.596;2023-12-28T01:32:29;8.93;;;8.43;;
19521;SDS011;9905;52.126;5.596;2023-12-28T01:34:55;7.75;;;7.45;;
19521;SDS011;9905;52.126;5.596;2023-12-28T01:37:22;9.40;;;8.82;;
19521;SDS011;9905;52.126;5.596;2023-12-28T01:39:49;8.50;;;8.10;;
19521;SDS011;9905;52.126;5.596;2023-12-28T01:42:16;9.23;;;8.80;;
19521;SDS011;9905;52.126;5.596;2023-12-28T01:44:43;8.93;;;8.43;;
19521;SDS011;9905;52.126;5.596;2023-12-28T01:47:11;8.88;;;8.38;;
19521;SDS011;9905;52.126;5.596;2023-12-28T01:49:37;9.38;;;8.93;;
19521;SDS011;9905;52.126;5.596;2023-12-28T01:52:05;8.30;;;8.00;;
19521;SDS011;9905;52.126;5.596;2023-12-28T01:54:33;9.23;;;8.85;;
19521;SDS011;9905;52.126;5.596;2023-12-28T01:57:01;9.38;;;8.95;;
19521;SDS011;9905;52.126;5.596;2023-12-28T01:59:29;8.88;;;8.43;;
19521;SDS011;9905;52.126;5.596;2023-12-28T02:01:56;9.95;;;9.55;;
19521;SDS011;9905;52.126;5.596;2023-12-28T02:04:24;10.30;;;9.70;;
19521;SDS011;9905;52.126;5.596;2023-12-28T02:06:53;9.90;;;9.40;;
19521;SDS011;9905;52.126;5.596;2023-12-28T02:09:23;9.68;;;8.98;;
19521;SDS011;9905;52.126;5.596;2023-12-28T02:11:50;9.50;;;9.18;;
19521;SDS011;9905;52.126;5.596;2023-12-28T02:14:17;9.98;;;9.43;;
19521;SDS011;9905;52.126;5.596;2023-12-28T02:16:46;9.82;;;9.43;;
19521;SDS011;9905;52.126;5.596;2023-12-28T02:19:18;10.18;;;9.68;;
19521;SDS011;9905;52.126;5.596;2023-12-28T02:21:58;9.57;;;9.05;;
19521;SDS011;9905;52.126;5.596;2023-12-28T02:24:25;9.30;;;8.80;;
19521;SDS011;9905;52.126;5.596;2023-12-28T02:26:53;10.43;;;9.93;;
19521;SDS011;9905;52.126;5.596;2023-12-28T02:29:20;10.05;;;9.48;;
19521;SDS011;9905;52.126;5.596;2023-12-28T02:31:49;9.45;;;8.73;;
19521;SDS011;9905;52.126;5.596;2023-12-28T02:34:26;9.77;;;9.35;;
19521;SDS011;9905;52.126;5.596;2023-12-28T02:36:57;9.65;;;9.15;;
19521;SDS011;9905;52.126;5.596;2023-12-28T02:39:27;9.52;;;9.00;;
19521;SDS011;9905;52.126;5.596;2023-12-28T02:41:57;8.85;;;8.35;;
19521;SDS011;9905;52.126;5.596;2023-12-28T02:44:24;8.60;;;8.27;;
19521;SDS011;9905;52.126;5.596;2023-12-28T02:46:51;10.20;;;9.50;;
19521;SDS011;9905;52.126;5.596;2023-12-28T02:49:17;9.50;;;8.77;;
19521;SDS011;9905;52.126;5.596;2023-12-28T02:51:44;9.25;;;8.82;;
19521;SDS011;9905;52.126;5.596;2023-12-28T02:54:11;8.25;;;7.65;;
19521;SDS011;9905;52.126;5.596;2023-12-28T02:56:39;9.30;;;8.73;;
19521;SDS011;9905;52.126;5.596;2023-12-28T02:59:07;9.00;;;8.40;;
19521;SDS011;9905;52.126;5.596;2023-12-28T03:01:34;8.60;;;7.93;;
19521;SDS011;9905;52.126;5.596;2023-12-28T03:04:00;8.52;;;8.02;;
19521;SDS011;9905;52.126;5.596;2023-12-28T03:06:27;8.50;;;7.97;;
19521;SDS011;9905;52.126;5.596;2023-12-28T03:08:54;7.63;;;7.22;;
19521;SDS011;9905;52.126;5.596;2023-12-28T03:11:20;8.45;;;7.95;;
19521;SDS011;9905;52.126;5.596;2023-12-28T03:13:47;7.72;;;7.30;;
19521;SDS011;9905;52.126;5.596;2023-12-28T03:16:15;8.00;;;7.45;;
19521;SDS011;9905;52.126;5.596;2023-12-28T03:18:42;8.85;;;8.23;;
19521;SDS011;9905;52.126;5.596;2023-12-28T03:21:09;9.07;;;8.30;;
19521;SDS011;9905;52.126;5.596;2023-12-28T03:23:36;7.60;;;7.20;;
19521;SDS011;9905;52.126;5.596;2023-12-28T03:26:03;6.85;;;6.32;;
19521;SDS011;9905;52.126;5.596;2023-12-28T03:28:30;8.05;;;7.55;;
19521;SDS011;9905;52.126;5.596;2023-12-28T03:30:56;7.95;;;7.55;;
19521;SDS011;9905;52.126;5.596;2023-12-28T03:33:25;7.75;;;7.45;;
19521;SDS011;9905;52.126;5.596;2023-12-28T03:35:52;7.72;;;7.32;;
19521;SDS011;9905;52.126;5.596;2023-12-28T03:38:19;7.45;;;7.10;;
19521;SDS011;9905;52.126;5.596;2023-12-28T03:40:45;7.32;;;6.95;;
19521;SDS011;9905;52.126;5.596;2023-12-28T03:43:14;7.88;;;7.40;;
19521;SDS011;9905;52.126;5.596;2023-12-28T03:45:41;8.02;;;7.38;;
19521;SDS011;9905;52.126;5.596;2023-12-28T03:48:08;7.18;;;6.88;;
19521;SDS011;9905;52.126;5.596;2023-12-28T03:50:37;7.88;;;7.18;;
19521;SDS011;9905;52.126;5.596;2023-12-28T03:53:03;7.65;;;6.78;;
19521;SDS011;9905;52.126;5.596;2023-12-28T03:55:30;8.63;;;7.65;;
19521;SDS011;9905;52.126;5.596;2023-12-28T03:57:57;8.07;;;7.38;;
19521;SDS011;9905;52.126;5.596;2023-12-28T04:00:24;7.28;;;6.82;;
19521;SDS011;9905;52.126;5.596;2023-12-28T04:02:51;7.32;;;6.90;;
19521;SDS011;9905;52.126;5.596;2023-12-28T04:05:17;7.57;;;6.95;;
19521;SDS011;9905;52.126;5.596;2023-12-28T04:07:45;7.20;;;6.82;;
19521;SDS011;9905;52.126;5.596;2023-12-28T04:10:12;6.75;;;6.35;;
19521;SDS011;9905;52.126;5.596;2023-12-28T04:12:39;8.05;;;7.18;;
19521;SDS011;9905;52.126;5.596;2023-12-28T04:15:06;7.15;;;6.72;;
19521;SDS011;9905;52.126;5.596;2023-12-28T04:17:32;8.02;;;7.32;;
19521;SDS011;9905;52.126;5.596;2023-12-28T04:19:59;7.85;;;6.35;;
19521;SDS011;9905;52.126;5.596;2023-12-28T04:22:26;7.68;;;7.15;;
19521;SDS011;9905;52.126;5.596;2023-12-28T04:24:54;7.30;;;6.70;;
19521;SDS011;9905;52.126;5.596;2023-12-28T04:27:21;8.55;;;7.72;;
19521;SDS011;9905;52.126;5.596;2023-12-28T04:29:47;7.30;;;6.75;;
19521;SDS011;9905;52.126;5.596;2023-12-28T04:32:14;8.50;;;7.72;;
19521;SDS011;9905;52.126;5.596;2023-12-28T04:34:41;7.53;;;6.80;;
19521;SDS011;9905;52.126;5.596;2023-12-28T04:37:08;7.32;;;6.60;;
19521;SDS011;9905;52.126;5.596;2023-12-28T04:39:35;8.02;;;7.35;;
19521;SDS011;9905;52.126;5.596;2023-12-28T04:42:03;7.78;;;7.15;;
19521;SDS011;9905;52.126;5.596;2023-12-28T04:44:30;8.02;;;7.53;;
19521;SDS011;9905;52.126;5.596;2023-12-28T04:46:57;8.68;;;6.90;;
19521;SDS011;9905;52.126;5.596;2023-12-28T04:49:23;7.35;;;6.95;;
19521;SDS011;9905;52.126;5.596;2023-12-28T04:51:50;8.38;;;6.78;;
19521;SDS011;9905;52.126;5.596;2023-12-28T04:54:17;8.10;;;6.90;;
19521;SDS011;9905;52.126;5.596;2023-12-28T04:56:44;7.22;;;6.50;;
19521;SDS011;9905;52.126;5.596;2023-12-28T04:59:12;9.15;;;7.15;;
19521;SDS011;9905;52.126;5.596;2023-12-28T05:01:42;8.32;;;7.60;;
19521;SDS011;9905;52.126;5.596;2023-12-28T05:04:09;10.10;;;6.43;;
19521;SDS011;9905;52.126;5.596;2023-12-28T05:06:36;7.00;;;6.57;;
19521;SDS011;9905;52.126;5.596;2023-12-28T05:09:02;7.07;;;6.50;;
19521;SDS011;9905;52.126;5.596;2023-12-28T05:11:30;11.27;;;6.85;;
19521;SDS011;9905;52.126;5.596;2023-12-28T05:13:57;8.55;;;6.35;;
19521;SDS011;9905;52.126;5.596;2023-12-28T05:16:25;7.18;;;5.75;;
19521;SDS011;9905;52.126;5.596;2023-12-28T05:18:52;6.90;;;6.30;;
19521;SDS011;9905;52.126;5.596;2023-12-28T05:21:19;7.28;;;6.10;;
19521;SDS011;9905;52.126;5.596;2023-12-28T05:23:46;10.60;;;6.07;;
19521;SDS011;9905;52.126;5.596;2023-12-28T05:26:12;7.30;;;6.63;;
19521;SDS011;9905;52.126;5.596;2023-12-28T05:28:39;6.78;;;5.72;;
19521;SDS011;9905;52.126;5.596;2023-12-28T05:31:06;8.15;;;6.22;;
19521;SDS011;9905;52.126;5.596;2023-12-28T05:33:34;6.85;;;6.00;;
19521;SDS011;9905;52.126;5.596;2023-12-28T05:36:00;6.78;;;6.20;;
19521;SDS011;9905;52.126;5.596;2023-12-28T05:38:27;5.95;;;5.43;;
19521;SDS011;9905;52.126;5.596;2023-12-28T05:40:54;7.07;;;6.50;;
19521;SDS011;9905;52.126;5.596;2023-12-28T05:43:21;7.15;;;6.00;;
19521;SDS011;9905;52.126;5.596;2023-12-28T05:45:47;8.68;;;5.93;;
19521;SDS011;9905;52.126;5.596;2023-12-28T05:48:14;8.07;;;6.22;;
19521;SDS011;9905;52.126;5.596;2023-12-28T05:50:42;7.28;;;6.40;;
19521;SDS011;9905;52.126;5.596;2023-12-28T05:53:09;6.82;;;6.22;;
19521;SDS011;9905;52.126;5.596;2023-12-28T05:55:38;7.53;;;6.55;;
19521;SDS011;9905;52.126;5.596;2023-12-28T05:58:05;10.82;;;4.97;;
19521;SDS011;9905;52.126;5.596;2023-12-28T06:00:32;9.55;;;6.35;;
19521;SDS011;9905;52.126;5.596;2023-12-28T06:03:00;11.70;;;5.63;;
19521;SDS011;9905;52.126;5.596;2023-12-28T06:05:27;7.75;;;5.30;;
19521;SDS011;9905;52.126;5.596;2023-12-28T06:07:55;7.38;;;6.00;;
19521;SDS011;9905;52.126;5.596;2023-12-28T06:10:22;8.88;;;5.10;;
19521;SDS011;9905;52.126;5.596;2023-12-28T06:12:49;7.10;;;5.75;;
19521;SDS011;9905;52.126;5.596;2023-12-28T06:15:16;6.10;;;5.15;;
19521;SDS011;9905;52.126;5.596;2023-12-28T06:17:42;5.15;;;4.65;;
19521;SDS011;9905;52.126;5.596;2023-12-28T06:20:10;7.72;;;5.30;;
19521;SDS011;9905;52.126;5.596;2023-12-28T06:22:37;9.15;;;5.70;;
19521;SDS011;9905;52.126;5.596;2023-12-28T06:25:05;9.38;;;5.50;;
19521;SDS011;9905;52.126;5.596;2023-12-28T06:27:33;12.63;;;5.55;;
19521;SDS011;9905;52.126;5.596;2023-12-28T06:29:58;6.85;;;5.88;;
19521;SDS011;9905;52.126;5.596;2023-12-28T06:32:25;8.48;;;5.90;;
19521;SDS011;9905;52.126;5.596;2023-12-28T06:34:52;8.43;;;6.13;;
19521;SDS011;9905;52.126;5.596;2023-12-28T06:37:18;6.93;;;5.80;;
19521;SDS011;9905;52.126;5.596;2023-12-28T06:39:45;6.97;;;6.20;;
19521;SDS011;9905;52.126;5.596;2023-12-28T06:42:13;8.93;;;6.03;;
19521;SDS011;9905;52.126;5.596;2023-12-28T06:44:41;8.20;;;5.18;;
19521;SDS011;9905;52.126;5.596;2023-12-28T06:47:07;7.93;;;6.43;;
19521;SDS011;9905;52.126;5.596;2023-12-28T06:49:34;6.40;;;5.22;;
19521;SDS011;9905;52.126;5.596;2023-12-28T06:52:01;8.40;;;5.50;;
19521;SDS011;9905;52.126;5.596;2023-12-28T06:54:27;6.40;;;5.20;;
19521;SDS011;9905;52.126;5.596;2023-12-28T06:56:54;7.22;;;5.25;;
19521;SDS011;9905;52.126;5.596;2023-12-28T06:59:22;8.48;;;5.43;;
19521;SDS011;9905;52.126;5.596;2023-12-28T07:01:49;13.13;;;6.45;;
19521;SDS011;9905;52.126;5.596;2023-12-28T07:04:16;7.65;;;5.20;;
19521;SDS011;9905;52.126;5.596;2023-12-28T07:06:42;6.28;;;5.40;;
19521;SDS011;9905;52.126;5.596;2023-12-28T07:09:09;11.77;;;6.47;;
19521;SDS011;9905;52.126;5.596;2023-12-28T07:11:36;14.93;;;6.88;;
19521;SDS011;9905;52.126;5.596;2023-12-28T07:14:03;9.98;;;6.20;;
19521;SDS011;9905;52.126;5.596;2023-12-28T07:16:31;15.90;;;5.70;;
19521;SDS011;9905;52.126;5.596;2023-12-28T07:18:57;6.28;;;5.68;;
19521;SDS011;9905;52.126;5.596;2023-12-28T07:21:24;10.40;;;5.75;;
19521;SDS011;9905;52.126;5.596;2023-12-28T07:23:51;14.23;;;5.88;;
19521;SDS011;9905;52.126;5.596;2023-12-28T07:26:18;13.20;;;5.35;;
19521;SDS011;9905;52.126;5.596;2023-12-28T07:28:44;7.55;;;6.53;;
19521;SDS011;9905;52.126;5.596;2023-12-28T07:31:21;9.40;;;7.20;;
19521;SDS011;9905;52.126;5.596;2023-12-28T07:33:50;8.70;;;6.22;;
19521;SDS011;9905;52.126;5.596;2023-12-28T07:36:17;12.88;;;6.55;;
19521;SDS011;9905;52.126;5.596;2023-12-28T07:38:44;14.00;;;6.03;;
19521;SDS011;9905;52.126;5.596;2023-12-28T07:41:10;11.57;;;6.03;;
19521;SDS011;9905;52.126;5.596;2023-12-28T07:43:37;9.90;;;5.82;;
19521;SDS011;9905;52.126;5.596;2023-12-28T07:46:04;6.28;;;5.53;;
19521;SDS011;9905;52.126;5.596;2023-12-28T07:48:30;9.63;;;5.85;;
19521;SDS011;9905;52.126;5.596;2023-12-28T07:50:59;14.10;;;6.47;;
19521;SDS011;9905;52.126;5.596;2023-12-28T07:53:29;8.48;;;5.88;;
19521;SDS011;9905;52.126;5.596;2023-12-28T07:55:56;12.25;;;5.75;;
19521;SDS011;9905;52.126;5.596;2023-12-28T07:58:23;11.63;;;6.30;;
19521;SDS011;9905;52.126;5.596;2023-12-28T08:00:50;12.98;;;6.18;;
19521;SDS011;9905;52.126;5.596;2023-12-28T08:03:16;8.45;;;6.05;;
19521;SDS011;9905;52.126;5.596;2023-12-28T08:05:44;10.70;;;5.80;;
19521;SDS011;9905;52.126;5.596;2023-12-28T08:08:12;10.68;;;5.90;;
19521;SDS011;9905;52.126;5.596;2023-12-28T08:10:39;11.25;;;6.75;;
19521;SDS011;9905;52.126;5.596;2023-12-28T08:13:06;11.93;;;5.97;;
19521;SDS011;9905;52.126;5.596;2023-12-28T08:15:32;12.15;;;6.20;;
19521;SDS011;9905;52.126;5.596;2023-12-28T08:17:59;11.63;;;6.18;;
19521;SDS011;9905;52.126;5.596;2023-12-28T08:20:26;8.25;;;5.50;;
19521;SDS011;9905;52.126;5.596;2023-12-28T08:22:53;11.32;;;5.97;;
19521;SDS011;9905;52.126;5.596;2023-12-28T08:25:21;9.38;;;5.47;;
19521;SDS011;9905;52.126;5.596;2023-12-28T08:27:48;7.07;;;5.68;;
19521;SDS011;9905;52.126;5.596;2023-12-28T08:30:14;9.45;;;5.70;;
19521;SDS011;9905;52.126;5.596;2023-12-28T08:32:41;8.90;;;6.10;;
19521;SDS011;9905;52.126;5.596;2023-12-28T08:35:08;12.10;;;6.55;;
19521;SDS011;9905;52.126;5.596;2023-12-28T08:37:35;13.70;;;6.10;;
19521;SDS011;9905;52.126;5.596;2023-12-28T08:40:01;11.57;;;6.47;;
19521;SDS011;9905;52.126;5.596;2023-12-28T08:42:31;14.27;;;6.40;;
19521;SDS011;9905;52.126;5.596;2023-12-28T08:44:57;8.77;;;6.07;;
19521;SDS011;9905;52.126;5.596;2023-12-28T08:47:24;11.10;;;6.97;;
19521;SDS011;9905;52.126;5.596;2023-12-28T08:49:51;11.13;;;5.97;;
19521;SDS011;9905;52.126;5.596;2023-12-28T08:52:18;12.68;;;7.00;;
19521;SDS011;9905;52.126;5.596;2023-12-28T08:54:44;17.80;;;6.25;;
19521;SDS011;9905;52.126;5.596;2023-12-28T08:57:11;8.52;;;5.75;;
19521;SDS011;9905;52.126;5.596;2023-12-28T08:59:39;16.35;;;6.28;;
19521;SDS011;9905;52.126;5.596;2023-12-28T09:02:06;12.88;;;6.05;;
19521;SDS011;9905;52.126;5.596;2023-12-28T09:04:33;11.50;;;5.90;;
19521;SDS011;9905;52.126;5.596;2023-12-28T09:07:00;14.70;;;7.78;;
19521;SDS011;9905;52.126;5.596;2023-12-28T09:09:27;14.70;;;6.30;;
19521;SDS011;9905;52.126;5.596;2023-12-28T09:11:54;8.68;;;5.88;;
19521;SDS011;9905;52.126;5.596;2023-12-28T09:14:20;16.77;;;6.75;;
19521;SDS011;9905;52.126;5.596;2023-12-28T09:16:48;14.02;;;5.93;;
19521;SDS011;9905;52.126;5.596;2023-12-28T09:19:15;11.43;;;5.78;;
19521;SDS011;9905;52.126;5.596;2023-12-28T09:21:42;8.02;;;5.03;;
19521;SDS011;9905;52.126;5.596;2023-12-28T09:24:09;13.65;;;5.63;;
19521;SDS011;9905;52.126;5.596;2023-12-28T09:26:35;11.27;;;6.18;;
19521;SDS011;9905;52.126;5.596;2023-12-28T09:29:02;11.55;;;5.35;;
19521;SDS011;9905;52.126;5.596;2023-12-28T09:31:29;12.65;;;5.60;;
19521;SDS011;9905;52.126;5.596;2023-12-28T09:33:57;13.32;;;5.57;;
19521;SDS011;9905;52.126;5.596;2023-12-28T09:36:24;10.35;;;5.47;;
19521;SDS011;9905;52.126;5.596;2023-12-28T09:38:51;11.70;;;5.55;;
19521;SDS011;9905;52.126;5.596;2023-12-28T09:41:18;12.88;;;5.68;;
19521;SDS011;9905;52.126;5.596;2023-12-28T09:43:53;8.20;;;6.03;;
19521;SDS011;9905;52.126;5.596;2023-12-28T09:46:20;13.48;;;5.65;;
19521;SDS011;9905;52.126;5.596;2023-12-28T09:48:47;12.40;;;5.82;;
19521;SDS011;9905;52.126;5.596;2023-12-28T09:51:16;10.68;;;5.78;;
19521;SDS011;9905;52.126;5.596;2023-12-28T09:53:43;15.60;;;6.25;;
19521;SDS011;9905;52.126;5.596;2023-12-28T09:56:10;14.75;;;5.53;;
19521;SDS011;9905;52.126;5.596;2023-12-28T09:58:38;7.93;;;5.75;;
19521;SDS011;9905;52.126;5.596;2023-12-28T10:01:06;11.77;;;5.47;;
19521;SDS011;9905;52.126;5.596;2023-12-28T10:03:35;8.07;;;4.55;;
19521;SDS011;9905;52.126;5.596;2023-12-28T10:06:02;6.43;;;5.35;;
19521;SDS011;9905;52.126;5.596;2023-12-28T10:08:30;9.43;;;5.60;;
19521;SDS011;9905;52.126;5.596;2023-12-28T10:10:57;17.55;;;5.95;;
19521;SDS011;9905;52.126;5.596;2023-12-28T10:13:26;8.68;;;5.47;;
19521;SDS011;9905;52.126;5.596;2023-12-28T10:15:52;6.80;;;4.70;;
19521;SDS011;9905;52.126;5.596;2023-12-28T10:18:23;9.13;;;4.95;;
19521;SDS011;9905;52.126;5.596;2023-12-28T10:20:50;7.03;;;5.20;;
19521;SDS011;9905;52.126;5.596;2023-12-28T10:23:17;10.73;;;5.63;;
19521;SDS011;9905;52.126;5.596;2023-12-28T10:25:46;10.43;;;5.22;;
19521;SDS011;9905;52.126;5.596;2023-12-28T10:28:15;10.85;;;5.18;;
19521;SDS011;9905;52.126;5.596;2023-12-28T10:30:44;10.40;;;5.40;;
19521;SDS011;9905;52.126;5.596;2023-12-28T10:33:11;12.32;;;5.60;;
19521;SDS011;9905;52.126;5.596;2023-12-28T10:35:39;13.80;;;4.90;;
19521;SDS011;9905;52.126;5.596;2023-12-28T10:38:05;10.85;;;5.78;;
19521;SDS011;9905;52.126;5.596;2023-12-28T10:40:35;8.07;;;5.80;;
19521;SDS011;9905;52.126;5.596;2023-12-28T10:43:06;8.93;;;4.80;;
19521;SDS011;9905;52.126;5.596;2023-12-28T10:45:34;16.20;;;5.90;;
19521;SDS011;9905;52.126;5.596;2023-12-28T10:48:04;9.75;;;5.60;;
19521;SDS011;9905;52.126;5.596;2023-12-28T10:50:35;13.45;;;5.30;;
19521;SDS011;9905;52.126;5.596;2023-12-28T10:53:09;11.40;;;5.63;;
19521;SDS011;9905;52.126;5.596;2023-12-28T10:55:47;10.88;;;5.38;;
19521;SDS011;9905;52.126;5.596;2023-12-28T10:58:21;9.82;;;4.93;;
19521;SDS011;9905;52.126;5.596;2023-12-28T11:00:56;12.40;;;5.25;;
19521;SDS011;9905;52.126;5.596;2023-12-28T11:03:30;10.90;;;5.40;;
19521;SDS011;9905;52.126;5.596;2023-12-28T11:06:01;9.98;;;5.18;;
19521;SDS011;9905;52.126;5.596;2023-12-28T11:08:30;9.60;;;5.03;;
19521;SDS011;9905;52.126;5.596;2023-12-28T11:10:58;11.07;;;6.10;;
19521;SDS011;9905;52.126;5.596;2023-12-28T11:13:28;15.05;;;5.60;;
19521;SDS011;9905;52.126;5.596;2023-12-28T11:15:58;7.88;;;5.60;;
19521;SDS011;9905;52.126;5.596;2023-12-28T11:18:25;12.30;;;5.93;;
19521;SDS011;9905;52.126;5.596;2023-12-28T11:20:53;14.68;;;5.47;;
19521;SDS011;9905;52.126;5.596;2023-12-28T11:23:20;13.27;;;4.95;;
19521;SDS011;9905;52.126;5.596;2023-12-28T11:25:47;11.63;;;5.45;;
19521;SDS011;9905;52.126;5.596;2023-12-28T11:28:14;12.65;;;5.50;;
19521;SDS011;9905;52.126;5.596;2023-12-28T11:30:42;15.68;;;4.85;;
19521;SDS011;9905;52.126;5.596;2023-12-28T11:33:10;14.10;;;5.30;;
19521;SDS011;9905;52.126;5.596;2023-12-28T11:35:38;12.68;;;5.13;;
19521;SDS011;9905;52.126;5.596;2023-12-28T11:38:06;14.20;;;5.60;;
19521;SDS011;9905;52.126;5.596;2023-12-28T11:40:41;12.02;;;4.93;;
19521;SDS011;9905;52.126;5.596;2023-12-28T11:43:15;14.75;;;5.75;;
19521;SDS011;9905;52.126;5.596;2023-12-28T11:45:49;9.30;;;4.57;;
19521;SDS011;9905;52.126;5.596;2023-12-28T11:48:22;12.13;;;5.60;;
19521;SDS011;9905;52.126;5.596;2023-12-28T11:50:49;18.13;;;6.10;;
19521;SDS011;9905;52.126;5.596;2023-12-28T11:53:16;12.52;;;5.45;;
19521;SDS011;9905;52.126;5.596;2023-12-28T11:55:44;10.23;;;5.28;;
19521;SDS011;9905;52.126;5.596;2023-12-28T11:58:11;12.40;;;5.72;;
19521;SDS011;9905;52.126;5.596;2023-12-28T12:00:39;13.38;;;5.35;;
19521;SDS011;9905;52.126;5.596;2023-12-28T12:03:07;12.75;;;4.43;;
19521;SDS011;9905;52.126;5.596;2023-12-28T12:05:36;16.55;;;5.60;;
19521;SDS011;9905;52.126;5.596;2023-12-28T12:08:03;10.93;;;4.97;;
19521;SDS011;9905;52.126;5.596;2023-12-28T12:10:30;14.38;;;5.28;;
19521;SDS011;9905;52.126;5.596;2023-12-28T12:12:57;11.63;;;6.10;;
19521;SDS011;9905;52.126;5.596;2023-12-28T12:15:25;14.45;;;5.82;;
19521;SDS011;9905;52.126;5.596;2023-12-28T12:17:54;10.82;;;5.57;;
19521;SDS011;9905;52.126;5.596;2023-12-28T12:20:22;18.20;;;6.25;;
19521;SDS011;9905;52.126;5.596;2023-12-28T12:22:49;11.77;;;5.38;;
19521;SDS011;9905;52.126;5.596;2023-12-28T12:25:17;16.48;;;5.70;;
19521;SDS011;9905;52.126;5.596;2023-12-28T12:27:44;18.55;;;5.80;;
19521;SDS011;9905;52.126;5.596;2023-12-28T12:30:11;14.43;;;5.57;;
19521;SDS011;9905;52.126;5.596;2023-12-28T12:32:38;14.38;;;5.40;;
19521;SDS011;9905;52.126;5.596;2023-12-28T12:35:07;21.02;;;5.43;;
19521;SDS011;9905;52.126;5.596;2023-12-28T12:37:37;12.18;;;4.93;;
19521;SDS011;9905;52.126;5.596;2023-12-28T12:40:04;12.02;;;5.30;;
19521;SDS011;9905;52.126;5.596;2023-12-28T12:42:32;14.70;;;5.53;;
19521;SDS011;9905;52.126;5.596;2023-12-28T12:44:59;15.43;;;4.85;;
19521;SDS011;9905;52.126;5.596;2023-12-28T12:47:31;13.25;;;5.60;;
19521;SDS011;9905;52.126;5.596;2023-12-28T12:49:58;8.30;;;4.72;;
19521;SDS011;9905;52.126;5.596;2023-12-28T12:52:25;14.10;;;5.13;;
19521;SDS011;9905;52.126;5.596;2023-12-28T12:54:55;13.73;;;4.80;;
19521;SDS011;9905;52.126;5.596;2023-12-28T12:57:23;11.80;;;5.30;;
19521;SDS011;9905;52.126;5.596;2023-12-28T12:59:51;15.77;;;5.55;;
19521;SDS011;9905;52.126;5.596;2023-12-28T13:02:17;13.65;;;5.22;;
19521;SDS011;9905;52.126;5.596;2023-12-28T13:04:44;7.28;;;5.00;;
19521;SDS011;9905;52.126;5.596;2023-12-28T13:07:11;6.93;;;4.30;;
19521;SDS011;9905;52.126;5.596;2023-12-28T13:09:38;9.40;;;4.80;;
19521;SDS011;9905;52.126;5.596;2023-12-28T13:12:06;14.05;;;5.20;;
19521;SDS011;9905;52.126;5.596;2023-12-28T13:14:34;14.13;;;4.97;;
19521;SDS011;9905;52.126;5.596;2023-12-28T13:17:00;9.93;;;5.40;;
19521;SDS011;9905;52.126;5.596;2023-12-28T13:19:27;11.48;;;4.47;;
19521;SDS011;9905;52.126;5.596;2023-12-28T13:21:54;8.52;;;5.22;;
19521;SDS011;9905;52.126;5.596;2023-12-28T13:24:21;10.43;;;4.95;;
19521;SDS011;9905;52.126;5.596;2023-12-28T13:26:48;11.88;;;5.65;;
19521;SDS011;9905;52.126;5.596;2023-12-28T13:29:16;15.43;;;6.22;;
19521;SDS011;9905;52.126;5.596;2023-12-28T13:31:43;11.18;;;5.25;;
19521;SDS011;9905;52.126;5.596;2023-12-28T13:34:12;15.05;;;4.90;;
19521;SDS011;9905;52.126;5.596;2023-12-28T13:36:39;9.75;;;5.03;;
19521;SDS011;9905;52.126;5.596;2023-12-28T13:39:06;11.48;;;4.15;;
19521;SDS011;9905;52.126;5.596;2023-12-28T13:41:36;12.18;;;4.95;;
19521;SDS011;9905;52.126;5.596;2023-12-28T13:44:03;9.27;;;4.85;;
19521;SDS011;9905;52.126;5.596;2023-12-28T13:46:36;11.45;;;5.28;;
19521;SDS011;9905;52.126;5.596;2023-12-28T13:49:03;8.35;;;4.47;;
19521;SDS011;9905;52.126;5.596;2023-12-28T13:51:30;12.75;;;5.95;;
19521;SDS011;9905;52.126;5.596;2023-12-28T13:53:56;17.42;;;5.60;;
19521;SDS011;9905;52.126;5.596;2023-12-28T13:56:23;12.95;;;5.07;;
19521;SDS011;9905;52.126;5.596;2023-12-28T13:58:50;10.15;;;5.13;;
19521;SDS011;9905;52.126;5.596;2023-12-28T14:01:16;11.45;;;5.18;;
19521;SDS011;9905;52.126;5.596;2023-12-28T14:03:45;9.00;;;5.05;;
19521;SDS011;9905;52.126;5.596;2023-12-28T14:06:13;13.52;;;5.50;;
19521;SDS011;9905;52.126;5.596;2023-12-28T14:08:40;12.23;;;5.18;;
19521;SDS011;9905;52.126;5.596;2023-12-28T14:11:07;10.55;;;5.72;;
19521;SDS011;9905;52.126;5.596;2023-12-28T14:13:34;9.13;;;4.68;;
19521;SDS011;9905;52.126;5.596;2023-12-28T14:16:02;12.57;;;5.18;;
19521;SDS011;9905;52.126;5.596;2023-12-28T14:18:29;9.40;;;4.55;;
19521;SDS011;9905;52.126;5.596;2023-12-28T14:20:57;11.35;;;5.20;;
19521;SDS011;9905;52.126;5.596;2023-12-28T14:23:25;8.82;;;4.95;;
19521;SDS011;9905;52.126;5.596;2023-12-28T14:25:52;9.82;;;4.63;;
19521;SDS011;9905;52.126;5.596;2023-12-28T14:28:19;8.60;;;4.85;;
19521;SDS011;9905;52.126;5.596;2023-12-28T14:30:49;12.50;;;5.13;;
19521;SDS011;9905;52.126;5.596;2023-12-28T14:33:16;15.43;;;5.72;;
19521;SDS011;9905;52.126;5.596;2023-12-28T14:35:43;19.40;;;5.97;;
19521;SDS011;9905;52.126;5.596;2023-12-28T14:38:11;8.07;;;5.05;;
19521;SDS011;9905;52.126;5.596;2023-12-28T14:40:38;12.30;;;5.85;;
19521;SDS011;9905;52.126;5.596;2023-12-28T14:43:05;11.95;;;5.72;;
19521;SDS011;9905;52.126;5.596;2023-12-28T14:45:32;15.27;;;6.57;;
19521;SDS011;9905;52.126;5.596;2023-12-28T14:47:58;12.68;;;7.30;;
19521;SDS011;9905;52.126;5.596;2023-12-28T14:50:25;10.60;;;6.55;;
19521;SDS011;9905;52.126;5.596;2023-12-28T14:52:52;10.18;;;7.35;;
19521;SDS011;9905;52.126;5.596;2023-12-28T14:55:20;7.07;;;6.38;;
19521;SDS011;9905;52.126;5.596;2023-12-28T14:57:48;15.07;;;7.13;;